Time;durP1;ratioP1;P1;durP2;ratioP2;P2;SDS_P1;SDS_P2;PMS_P1;PMS_P2;Temp;Humidity;BMP_temperature;BMP_pressure;BME280_temperature;BME280_humidity;BME280_pressure;Samples;Min_cycle;Max_cycle;Signal;HPM_P1;HPM_P2
2021/07/01 00:00:26;;;;;;;2.60;0.20;;;20.10;98.40;;;19.68;62.38;100037.06;5048207;28;20032;-62
2021/07/01 00:02:52;;;;;;;2.67;0.10;;;20.10;98.50;;;19.74;62.11;100033.56;5044696;28;20046;-56
2021/07/01 00:05:21;;;;;;;1.75;0.10;;;20.20;98.70;;;19.73;61.76;100038.03;5067617;28;20478;-57
2021/07/01 00:07:47;;;;;;;1.65;0.10;;;20.20;98.10;;;19.77;61.68;100036.59;5028501;28;20057;-51
2021/07/01 00:10:22;;;;;;;3.25;0.30;;;20.20;98.20;;;19.77;62.05;100033.94;5040490;28;20621;-62
2021/07/01 00:12:48;;;;;;;2.70;0.10;;;20.30;98.10;;;19.71;61.96;100036.63;5064656;28;20407;-61
2021/07/01 00:15:20;;;;;;;1.35;0.10;;;20.20;98.30;;;19.67;62.47;100032.78;5066811;28;20040;-60
2021/07/01 00:17:46;;;;;;;2.53;0.17;;;20.20;98.60;;;19.67;62.76;100035.44;5050668;28;20036;-56
2021/07/01 00:20:14;;;;;;;3.40;0.10;;;20.20;99.00;;;19.61;62.79;100042.38;5055205;28;20040;-62
2021/07/01 00:22:41;;;;;;;2.25;0.20;;;20.10;98.90;;;19.51;63.41;100032.28;5047279;28;20149;-61
2021/07/01 00:25:10;;;;;;;1.85;0.10;;;20.10;99.30;;;19.45;63.29;100022.53;5049553;28;20033;-55
2021/07/01 00:27:36;;;;;;;1.55;0.20;;;20.00;99.40;;;19.46;63.24;100039.19;5050674;28;20569;-55
2021/07/01 00:30:05;;;;;;;2.22;0.20;;;20.00;99.60;;;19.54;62.98;100036.34;5049810;28;20037;-53
2021/07/01 00:32:31;;;;;;;2.05;0.13;;;20.00;99.50;;;19.57;62.58;100025.34;5057156;28;20334;-61
2021/07/01 00:34:57;;;;;;;1.67;0.10;;;20.10;99.40;;;19.66;62.25;100033.81;5050568;28;20098;-63
2021/07/01 00:37:23;;;;;;;2.67;0.10;;;20.10;99.20;;;19.69;61.96;100028.91;5046813;28;20425;-56
2021/07/01 00:39:49;;;;;;;0.70;0.10;;;20.10;98.90;;;19.67;62.02;100032.78;5050789;28;20040;-55
2021/07/01 00:42:15;;;;;;;2.67;0.20;;;20.10;98.80;;;19.64;62.18;100035.88;5054049;28;20029;-55
2021/07/01 00:44:41;;;;;;;1.90;0.10;;;20.10;98.90;;;19.68;61.90;100031.78;5051378;28;20063;-58
2021/07/01 00:47:07;;;;;;;0.98;0.10;;;20.10;98.90;;;19.67;61.96;100030.16;5070321;28;20021;-55
2021/07/01 00:49:34;;;;;;;2.70;0.10;;;20.10;98.70;;;19.63;62.43;100034.25;5060814;28;20033;-64
2021/07/01 00:52:00;;;;;;;5.72;0.20;;;20.10;98.90;;;19.53;62.45;100030.22;5052034;28;20049;-55
2021/07/01 00:54:26;;;;;;;0.95;0.20;;;20.10;99.10;;;19.48;62.54;100037.97;5061824;28;20380;-61
2021/07/01 00:56:53;;;;;;;0.47;0.10;;;20.00;99.20;;;19.44;62.56;100028.84;5058662;28;20496;-58
2021/07/01 00:59:18;;;;;;;3.03;0.10;;;19.90;99.20;;;19.46;62.58;100032.06;5052569;28;20043;-56
2021/07/01 01:01:44;;;;;;;4.38;0.40;;;19.90;99.10;;;19.52;62.34;100043.66;5064802;28;20041;-55
2021/07/01 01:04:10;;;;;;;3.17;0.17;;;20.00;99.00;;;19.49;62.28;100033.47;5050558;28;20120;-54
2021/07/01 01:06:37;;;;;;;1.55;0.10;;;20.00;99.00;;;19.48;62.28;100031.88;5052838;28;20098;-62
2021/07/01 01:09:10;;;;;;;1.98;0.17;;;19.90;99.10;;;19.48;62.25;100026.56;5051986;28;20440;-53
2021/07/01 01:11:36;;;;;;;7.30;0.10;;;19.90;98.90;;;19.50;61.93;100035.91;5064423;28;20255;-54
2021/07/01 01:14:02;;;;;;;0.35;0.00;;;20.00;98.80;;;19.45;62.24;100029.66;5051659;28;20351;-51
2021/07/01 01:16:28;;;;;;;3.80;0.10;;;19.90;98.90;;;19.39;62.34;100025.22;5050230;28;20087;-58
2021/07/01 01:18:54;;;;;;;0.70;0.10;;;19.90;99.00;;;19.35;62.34;100031.97;5032108;28;20075;-60
2021/07/01 01:21:26;;;;;;;2.53;0.10;;;19.90;99.10;;;19.32;62.70;100027.91;5049952;28;20032;-57
2021/07/01 01:23:58;;;;;;;1.25;0.10;;;19.90;99.10;;;19.35;62.44;100027.50;5033818;28;20037;-61
2021/07/01 01:26:25;;;;;;;0.80;0.10;;;19.80;99.20;;;19.26;62.99;100027.94;5052193;28;20130;-48
2021/07/01 01:28:53;;;;;;;0.50;0.03;;;19.80;99.90;;;19.22;63.38;100031.00;5051687;28;20489;-56
2021/07/01 01:31:20;;;;;;;10.50;0.77;;;19.70;99.80;;;19.22;63.44;100030.19;5049488;28;20116;-57
2021/07/01 01:33:47;;;;;;;5.60;0.35;;;19.70;99.80;;;19.25;63.03;100031.59;5052240;28;20051;-63
2021/07/01 01:36:13;;;;;;;0.70;0.10;;;19.70;99.70;;;19.19;63.20;100026.16;5050077;28;20464;-55
2021/07/01 01:38:39;;;;;;;2.78;0.10;;;19.70;99.70;;;19.14;63.35;100020.69;5050160;28;20115;-52
2021/07/01 01:41:04;;;;;;;1.23;0.03;;;19.70;99.90;;;19.16;63.39;100025.75;5065270;28;20454;-52
2021/07/01 01:43:30;;;;;;;11.50;0.20;;;19.70;99.90;;;19.11;63.53;100021.09;5052045;28;20544;-56
2021/07/01 01:45:56;;;;;;;2.08;0.10;;;19.60;99.90;;;19.08;63.49;100026.00;5042100;28;20048;-53
2021/07/01 01:48:22;;;;;;;3.47;0.13;;;19.60;99.90;;;19.09;63.60;100028.44;5052902;28;20150;-55
2021/07/01 01:50:49;;;;;;;1.17;0.10;;;19.60;99.90;;;19.09;63.57;100035.53;5051598;28;20523;-58
2021/07/01 01:53:15;;;;;;;1.08;0.10;;;19.60;99.90;;;19.04;63.76;100035.34;5049177;28;20087;-49
2021/07/01 01:55:41;;;;;;;1.92;0.10;;;19.60;99.90;;;19.01;63.87;100041.06;5052211;28;20035;-50
2021/07/01 01:58:08;;;;;;;2.13;0.10;;;19.50;99.90;;;18.98;64.26;100041.47;5058872;28;20025;-61
2021/07/01 02:00:35;;;;;;;0.95;0.10;;;19.50;99.90;;;18.98;63.99;100037.00;5069226;28;20080;-57
2021/07/01 02:03:01;;;;;;;1.30;0.20;;;19.50;99.90;;;19.00;64.03;100034.16;5041834;28;20564;-65
2021/07/01 02:05:27;;;;;;;1.13;0.20;;;19.50;99.90;;;18.96;64.21;100025.84;5052990;28;20050;-55
2021/07/01 02:07:54;;;;;;;0.65;0.10;;;19.50;99.90;;;18.90;64.43;100018.78;5049469;28;20033;-55
2021/07/01 02:10:26;;;;;;;1.27;0.10;;;19.40;99.90;;;18.84;65.17;100024.91;5051831;28;20508;-54
2021/07/01 02:12:53;;;;;;;0.95;0.10;;;19.40;99.90;;;18.79;65.13;100025.50;5039834;28;20044;-56
2021/07/01 02:15:23;;;;;;;1.80;0.20;;;19.30;99.90;;;18.77;65.27;100029.38;5068746;28;20557;-61
2021/07/01 02:17:50;;;;;;;1.15;0.10;;;19.30;99.90;;;18.80;64.82;100024.50;5052599;28;20060;-55
2021/07/01 02:20:20;;;;;;;3.15;0.10;;;19.30;99.90;;;18.77;65.34;100032.84;5032886;28;20044;-54
2021/07/01 02:22:48;;;;;;;5.63;0.10;;;19.30;99.90;;;18.78;65.31;100034.44;5052669;28;20060;-57
2021/07/01 02:25:14;;;;;;;0.98;0.10;;;19.30;99.90;;;18.81;65.00;100033.22;5066709;28;20392;-62
2021/07/01 02:27:42;;;;;;;0.60;0.10;;;19.30;99.90;;;18.80;65.02;100032.41;5053513;28;20341;-60
2021/07/01 02:30:13;;;;;;;2.40;0.20;;;19.30;99.90;;;18.75;65.53;100034.06;5048775;28;20110;-53
2021/07/01 02:32:39;;;;;;;2.92;0.10;;;19.30;99.90;;;18.65;65.68;100034.47;5048450;28;20078;-63
2021/07/01 02:35:08;;;;;;;0.73;0.10;;;19.20;99.90;;;18.65;65.80;100038.94;5049077;28;20056;-52
2021/07/01 02:37:35;;;;;;;0.45;0.10;;;19.10;99.90;;;18.60;65.72;100029.00;5030897;28;20370;-59
2021/07/01 02:40:01;;;;;;;1.90;0.10;;;19.10;99.90;;;18.57;66.15;100037.31;5066178;28;20025;-57
2021/07/01 02:42:27;;;;;;;2.65;0.10;;;19.10;99.90;;;18.56;66.20;100038.31;5053497;28;20122;-63
2021/07/01 02:44:53;;;;;;;0.68;0.10;;;19.10;99.90;;;18.57;66.10;100034.69;5052546;28;20045;-59
2021/07/01 02:47:18;;;;;;;0.20;0.10;;;19.10;99.90;;;18.56;66.03;100033.88;5048366;28;20025;-59
2021/07/01 02:49:44;;;;;;;1.40;0.10;;;19.10;99.90;;;18.61;65.69;100029.81;5048261;28;20040;-54
2021/07/01 02:52:10;;;;;;;1.98;0.13;;;19.10;99.90;;;18.62;65.42;100029.63;5048287;28;20420;-55
2021/07/01 02:54:36;;;;;;;1.55;0.10;;;19.10;99.90;;;18.52;66.17;100022.09;5064556;28;20040;-58
2021/07/01 02:57:02;;;;;;;2.92;0.10;;;19.10;99.90;;;18.44;66.68;100024.94;5056165;28;20257;-49
2021/07/01 02:59:28;;;;;;;1.38;0.10;;;19.00;99.90;;;18.38;67.10;100032.91;5051652;28;20032;-58
2021/07/01 03:01:54;;;;;;;0.95;0.10;;;18.90;99.90;;;18.28;67.62;100035.16;5047685;28;20028;-59
2021/07/01 03:04:20;;;;;;;2.85;0.10;;;18.80;99.90;;;18.19;68.51;100042.44;5050761;28;20131;-60
2021/07/01 03:06:46;;;;;;;1.40;0.10;;;18.80;99.90;;;18.17;68.65;100040.03;5048314;28;20044;-62
2021/07/01 03:09:12;;;;;;;1.33;0.20;;;18.70;99.90;;;18.15;68.39;100033.31;5050942;28;20039;-58
2021/07/01 03:11:39;;;;;;;1.25;0.10;;;18.70;99.90;;;18.18;68.28;100041.63;5050775;28;20048;-62
2021/07/01 03:14:06;;;;;;;0.75;0.10;;;18.70;99.90;;;18.27;68.06;100038.81;5040280;28;20132;-58
2021/07/01 03:16:33;;;;;;;2.78;0.22;;;18.80;99.90;;;18.32;67.82;100034.53;5066527;28;20036;-54
2021/07/01 03:18:59;;;;;;;3.45;0.10;;;18.80;99.90;;;18.30;67.83;100038.38;5049994;28;20388;-60
2021/07/01 03:21:26;;;;;;;1.17;0.10;;;18.80;99.90;;;18.30;67.87;100033.94;5064408;28;20086;-55
2021/07/01 03:23:52;;;;;;;0.80;0.10;;;18.80;99.90;;;18.41;67.43;100045.69;5047548;28;20044;-59
2021/07/01 03:26:18;;;;;;;2.70;0.10;;;18.80;99.90;;;18.52;66.73;100042.38;5052282;28;20048;-57
2021/07/01 03:28:45;;;;;;;0.30;0.05;;;18.90;99.90;;;18.52;66.47;100042.38;5050042;28;20029;-60
2021/07/01 03:31:11;;;;;;;3.60;0.10;;;19.00;99.90;;;18.44;67.25;100045.25;5047642;28;20036;-56
2021/07/01 03:36:13;;;;;;;1.08;0.20;;;18.90;99.90;;;18.34;67.99;100032.50;5015291;22;20400;-53
2021/07/01 03:38:39;;;;;;;3.08;0.20;;;18.90;99.90;;;18.33;67.91;100037.97;5027872;28;20090;-55
2021/07/01 03:41:06;;;;;;;1.83;0.10;;;18.80;99.90;;;18.31;68.45;100040.00;5028009;28;20488;-55
2021/07/01 03:43:35;;;;;;;1.30;0.10;;;18.90;99.90;;;18.27;68.27;100033.53;5027854;28;20120;-56
2021/07/01 03:46:01;;;;;;;1.33;0.17;;;18.80;99.90;;;18.31;68.46;100040.81;5026161;28;20037;-59
2021/07/01 03:48:27;;;;;;;3.10;0.20;;;18.80;99.90;;;18.35;68.21;100035.94;5027773;28;20036;-54
2021/07/01 03:50:53;;;;;;;2.60;0.10;;;18.90;99.90;;;18.46;67.81;100043.22;5027637;28;20396;-62
2021/07/01 03:53:19;;;;;;;0.70;0.10;;;19.00;99.90;;;18.51;67.42;100038.94;5027470;28;20030;-59
2021/07/01 03:55:44;;;;;;;2.53;0.10;;;19.10;99.90;;;18.57;67.20;100047.88;5027560;28;20033;-60
2021/07/01 03:58:10;;;;;;;2.42;0.10;;;19.20;99.90;;;18.57;67.17;100046.03;5027904;28;20044;-54
2021/07/01 04:00:37;;;;;;;1.85;0.10;;;19.10;99.90;;;18.57;67.25;100045.22;5027910;28;20045;-51
2021/07/01 04:03:03;;;;;;;0.50;0.10;;;19.10;99.90;;;18.57;67.15;100051.31;5025960;28;20492;-50
2021/07/01 04:05:29;;;;;;;0.13;0.05;;;19.10;99.90;;;18.61;67.09;100049.09;5027379;28;20070;-59
2021/07/01 04:07:55;;;;;;;1.73;0.20;;;19.20;99.90;;;18.80;66.24;100053.53;5027166;28;20473;-52
2021/07/01 04:10:20;;;;;;;1.05;0.20;;;19.30;99.90;;;19.59;63.46;100046.25;5027679;28;20183;-51
2021/07/01 04:12:47;;;;;;;3.28;0.13;;;19.90;99.90;;;20.63;59.95;100051.69;5028172;28;20169;-55
2021/07/01 04:15:13;;;;;;;1.98;0.10;;;21.20;98.70;;;21.44;57.62;100051.31;5031328;28;20102;-55
2021/07/01 04:17:39;;;;;;;4.97;0.20;;;22.40;95.90;;;22.14;55.31;100054.16;5031742;28;20391;-54
2021/07/01 04:20:07;;;;;;;2.30;0.47;;;23.30;92.70;;;22.68;53.80;100049.50;5031152;28;20492;-53
2021/07/01 04:22:34;;;;;;;0.95;0.17;;;23.90;91.30;;;23.01;52.83;100058.69;5031215;28;20439;-62
2021/07/01 04:25:02;;;;;;;0.47;0.10;;;24.40;89.40;;;23.72;51.93;100060.81;5031163;28;20034;-60
2021/07/01 04:27:28;;;;;;;2.33;0.10;;;25.20;85.60;;;24.03;50.89;100066.66;5031062;28;20033;-60
2021/07/01 04:29:54;;;;;;;1.45;0.10;;;25.90;80.40;;;24.19;50.27;100063.16;5030905;28;20029;-57
2021/07/01 04:32:21;;;;;;;1.52;0.10;;;26.10;78.10;;;24.77;49.03;100073.31;5030976;28;20038;-58
2021/07/01 04:34:48;;;;;;;1.30;0.10;;;26.50;76.30;;;25.12;48.30;100072.16;5030810;28;20152;-53
2021/07/01 04:37:14;;;;;;;0.73;0.08;;;27.00;73.70;;;25.32;47.90;100074.25;5029419;28;20121;-55
2021/07/01 04:39:40;;;;;;;0.30;0.00;;;27.30;72.30;;;25.65;46.79;100073.25;5030943;28;20582;-58
2021/07/01 04:42:06;;;;;;;0.68;0.10;;;28.10;68.20;;;26.23;45.70;100071.59;5030983;28;20037;-55
2021/07/01 04:44:32;;;;;;;2.00;0.20;;;28.90;65.60;;;27.03;43.81;100071.25;5030816;28;20078;-56
2021/07/01 04:46:58;;;;;;;0.95;0.10;;;29.60;62.20;;;27.72;42.28;100078.09;5030803;28;20033;-57
2021/07/01 04:49:24;;;;;;;3.33;0.10;;;30.30;60.40;;;28.06;41.25;100067.66;5030968;28;20038;-60
2021/07/01 04:51:50;;;;;;;2.38;0.10;;;31.50;56.90;;;28.91;39.77;100070.41;5030700;28;20034;-57
2021/07/01 04:54:16;;;;;;;1.02;0.20;;;32.20;54.20;;;29.35;38.59;100068.56;5030828;28;20045;-50
2021/07/01 04:56:46;;;;;;;3.78;0.88;;;32.50;53.10;;;29.46;38.71;100060.50;5029278;28;20033;-63
2021/07/01 04:59:20;;;;;;;3.10;0.20;;;32.70;52.30;;;29.87;36.87;100052.91;5031009;28;20460;-54
2021/07/01 05:01:47;;;;;;;2.42;0.30;;;33.10;51.30;;;30.00;37.55;100055.78;5029594;28;20041;-56
2021/07/01 05:04:15;;;;;;;1.75;0.28;;;33.40;50.60;;;29.64;38.02;100047.22;5030439;28;20026;-55
2021/07/01 05:06:42;;;;;;;5.07;0.30;;;32.80;50.20;;;29.11;38.62;100040.03;5030399;28;20032;-50
2021/07/01 05:09:10;;;;;;;1.50;0.10;;;32.40;50.90;;;28.60;38.79;100051.75;5029358;28;20038;-63
2021/07/01 05:11:37;;;;;;;1.83;0.10;;;32.10;50.30;;;27.94;39.89;100048.38;5030411;28;20476;-63
2021/07/01 05:14:04;;;;;;;7.15;0.15;;;31.50;50.40;;;28.04;39.85;100061.75;5030476;28;20053;-63
2021/07/01 05:16:32;;;;;;;2.58;0.38;;;31.30;51.30;;;29.10;37.07;100059.88;5029008;28;20393;-56
2021/07/01 05:19:00;;;;;;;3.25;0.20;;;32.20;49.20;;;29.07;36.87;100055.88;5028947;28;20029;-59
2021/07/01 05:21:26;;;;;;;0.80;0.20;;;32.10;49.50;;;29.40;36.11;100063.19;5028800;28;20489;-62
2021/07/01 05:23:53;;;;;;;1.35;0.10;;;32.60;48.20;;;29.86;34.63;100060.16;5030054;28;20095;-64
2021/07/01 05:26:19;;;;;;;1.85;0.10;;;33.20;47.30;;;30.06;34.83;100064.59;5030247;28;20103;-61
2021/07/01 05:28:45;;;;;;;1.40;0.15;;;33.30;46.90;;;30.74;33.79;100058.22;5030382;28;20025;-63
2021/07/01 05:31:11;;;;;;;2.30;0.22;;;34.20;45.80;;;31.61;32.13;100058.66;5029778;28;20428;-63
2021/07/01 05:33:38;;;;;;;3.97;0.22;;;34.90;45.40;;;32.43;30.91;100066.97;5030065;28;20061;-64
2021/07/01 05:36:05;;;;;;;3.42;0.10;;;36.10;43.70;;;31.82;32.44;100059.94;5030310;28;20049;-57
2021/07/01 05:38:32;;;;;;;2.97;0.08;;;36.30;43.00;;;31.86;32.59;100068.25;5030179;28;20061;-57
2021/07/01 05:40:58;;;;;;;1.77;0.10;;;36.30;43.10;;;31.90;32.85;100064.66;5030062;28;20044;-57
2021/07/01 05:43:24;;;;;;;3.97;0.30;;;36.10;43.50;;;32.34;31.71;100060.66;5029757;28;20033;-55
2021/07/01 05:45:52;;;;;;;1.25;0.10;;;36.60;42.90;;;32.45;31.55;100064.78;5028008;28;20519;-56
2021/07/01 05:48:18;;;;;;;6.30;0.20;;;36.90;42.40;;;33.01;30.91;100070.94;5029773;28;20029;-61
2021/07/01 05:50:52;;;;;;;2.33;0.20;;;37.30;41.90;;;33.18;30.15;100071.88;5028506;28;20148;-63
2021/07/01 05:53:42;;;;;;;7.55;0.20;;;37.30;41.40;;;33.24;29.68;100070.66;5028451;28;20068;-59
2021/07/01 05:56:07;;;;;;;6.80;0.40;;;37.30;41.30;;;32.62;30.49;100073.03;5029400;28;20053;-53
2021/07/01 05:58:33;;;;;;;3.72;0.20;;;36.50;41.70;;;32.98;29.38;100072.34;5029668;28;20064;-52
2021/07/01 06:00:59;;;;;;;4.50;0.13;;;36.80;41.10;;;33.17;29.47;100080.28;5029818;28;20083;-64
2021/07/01 06:03:25;;;;;;;3.75;0.15;;;37.30;40.00;;;33.84;28.89;100073.09;5029621;28;20040;-56
2021/07/01 06:06:02;;;;;;;5.95;0.20;;;37.80;40.00;;;34.47;27.02;100079.31;5029374;28;20069;-54
2021/07/01 06:08:33;;;;;;;0.63;0.10;;;38.40;39.00;;;33.59;28.14;100070.97;5027902;28;20045;-59
2021/07/01 06:11:03;;;;;;;2.33;0.10;;;37.90;39.00;;;33.25;28.30;100068.78;5011371;28;20041;-56
2021/07/01 06:13:29;;;;;;;0.65;0.08;;;37.30;39.20;;;32.87;28.88;100062.88;5011927;28;20037;-52
2021/07/01 06:15:56;;;;;;;1.00;0.20;;;36.90;40.00;;;32.20;29.01;100060.63;5029248;28;20030;-53
2021/07/01 06:18:23;;;;;;;1.58;0.00;;;36.20;40.10;;;31.72;29.63;100062.81;5027549;28;20025;-53
2021/07/01 06:20:50;;;;;;;3.33;0.00;;;35.20;41.20;;;32.47;28.72;100064.47;5029345;28;20037;-61
2021/07/01 06:23:17;;;;;;;0.93;0.00;;;35.70;40.60;;;31.58;29.69;100067.31;5028959;28;20377;-53
2021/07/01 06:25:49;;;;;;;1.42;0.05;;;35.20;40.50;;;30.86;30.78;100069.38;5028828;28;20544;-60
2021/07/01 06:28:16;;;;;;;0.95;0.15;;;34.00;42.00;;;30.96;31.19;100074.63;5027273;28;20033;-60
2021/07/01 06:30:46;;;;;;;1.45;0.20;;;34.20;42.10;;;31.55;30.20;100068.72;5029007;28;20033;-57
2021/07/01 06:33:14;;;;;;;1.95;0.10;;;34.80;41.30;;;31.23;30.50;100064.06;5027227;28;20500;-58
2021/07/01 06:35:46;;;;;;;2.30;0.10;;;34.50;41.70;;;30.90;30.98;100076.59;5027604;28;20053;-55
2021/07/01 06:38:15;;;;;;;0.50;0.00;;;34.40;42.00;;;30.60;31.98;100082.34;5027550;28;20112;-56
2021/07/01 06:40:41;;;;;;;2.22;0.10;;;33.40;43.10;;;32.35;29.11;100081.13;5028682;28;20111;-57
2021/07/01 06:43:08;;;;;;;2.03;0.10;;;35.60;40.70;;;33.32;28.24;100076.47;5028601;28;20369;-58
2021/07/01 06:45:36;;;;;;;2.63;0.10;;;37.20;39.20;;;34.44;26.81;100083.44;5028356;28;20128;-61
2021/07/01 06:48:03;;;;;;;1.65;0.10;;;38.70;37.90;;;34.80;26.00;100082.44;5026829;28;20037;-56
2021/07/01 06:50:30;;;;;;;2.92;0.00;;;39.40;36.60;;;35.07;25.44;100081.38;5026686;28;20033;-51
2021/07/01 06:52:58;;;;;;;3.80;0.10;;;39.80;36.60;;;34.82;25.67;100081.03;5028258;28;20126;-58
2021/07/01 06:55:25;;;;;;;1.20;0.10;;;39.70;36.40;;;34.63;25.70;100080.47;5028320;28;20404;-61
2021/07/01 06:57:52;;;;;;;2.00;0.10;;;39.40;36.10;;;34.80;25.21;100079.75;5028327;28;20052;-59
2021/07/01 07:00:20;;;;;;;1.50;0.20;;;39.50;36.00;;;34.53;25.72;100089.66;5026767;28;20028;-61
2021/07/01 07:02:46;;;;;;;0.70;0.10;;;39.40;36.20;;;34.56;26.05;100072.78;5026614;28;20038;-50
2021/07/01 07:05:17;;;;;;;0.75;0.10;;;39.30;36.30;;;34.79;25.21;100078.91;5028489;28;20033;-57
2021/07/01 07:07:46;;;;;;;1.90;0.10;;;39.50;35.60;;;35.03;25.26;100080.41;5028190;28;20127;-57
2021/07/01 07:10:16;;;;;;;0.63;0.00;;;39.80;35.80;;;34.80;25.44;100082.44;5028082;28;20141;-54
2021/07/01 07:12:44;;;;;;;0.63;0.10;;;39.50;36.20;;;33.66;26.72;100076.75;5027964;28;20064;-61
2021/07/01 07:15:13;;;;;;;3.67;0.20;;;37.40;38.80;;;32.14;29.41;100079.91;5026463;28;20500;-57
2021/07/01 07:17:42;;;;;;;2.25;0.10;;;34.60;41.80;;;30.37;32.08;100081.22;5028272;28;20659;-61
2021/07/01 07:20:09;;;;;;;1.98;0.10;;;32.20;45.10;;;29.68;33.94;100083.16;5027946;28;20069;-59
2021/07/01 07:22:41;;;;;;;2.50;0.15;;;30.80;47.50;;;29.23;34.08;100084.22;5027750;28;20025;-59
2021/07/01 07:25:11;;;;;;;3.38;0.10;;;30.10;48.40;;;29.51;33.74;100079.25;5027967;28;20029;-62
2021/07/01 07:28:01;;;;;;;2.03;0.10;;;30.10;48.80;;;29.73;34.37;100076.94;5027542;28;20477;-59
2021/07/01 07:30:27;;;;;;;4.30;0.20;;;30.20;49.10;;;29.87;33.39;100091.31;5027545;28;20029;-52
2021/07/01 07:32:55;;;;;;;0.88;0.05;;;30.40;49.00;;;29.90;33.78;100085.38;5025871;28;20064;-55
2021/07/01 07:35:22;;;;;;;3.20;0.13;;;30.40;49.20;;;29.77;33.79;100080.69;5025765;28;20107;-55
2021/07/01 07:37:49;;;;;;;1.80;0.13;;;30.50;49.20;;;29.94;33.88;100081.06;5025818;28;20447;-57
2021/07/01 07:40:16;;;;;;;3.53;0.20;;;30.40;49.60;;;29.52;35.10;100080.84;5025829;28;20128;-52
2021/07/01 07:42:46;;;;;;;0.75;0.10;;;30.10;50.20;;;29.81;34.74;100080.88;5027168;28;20439;-52
2021/07/01 07:45:15;;;;;;;3.15;0.20;;;30.20;51.00;;;30.07;34.49;100084.19;5025928;28;20120;-52
2021/07/01 07:47:41;;;;;;;3.17;0.20;;;30.40;50.10;;;30.34;33.56;100082.56;5027251;28;20029;-55
2021/07/01 07:50:10;;;;;;;3.22;0.30;;;30.80;49.50;;;30.47;33.16;100091.84;5027366;28;20049;-57
2021/07/01 07:52:45;;;;;;;2.00;0.20;;;31.00;48.60;;;29.53;34.20;100087.81;5027117;28;20060;-57
2021/07/01 07:55:14;;;;;;;3.75;0.10;;;30.40;49.30;;;29.20;34.97;100087.47;5025626;28;20029;-52
2021/07/01 07:57:42;;;;;;;2.58;0.10;;;30.10;49.90;;;29.35;34.87;100081.97;5026119;28;20418;-56
2021/07/01 08:00:09;;;;;;;4.13;0.20;;;29.70;50.70;;;29.06;35.18;100089.13;5026174;28;20511;-54
2021/07/01 08:03:08;;;;;;;1.17;0.10;;;29.60;50.50;;;28.75;35.72;100088.44;5027399;28;20061;-56
2021/07/01 08:05:35;;;;;;;2.63;0.20;;;29.40;50.80;;;29.03;34.95;100087.00;5016338;28;20041;-55
2021/07/01 08:08:03;;;;;;;5.95;0.17;;;29.20;51.20;;;29.54;34.56;100084.84;5027466;28;20033;-53
2021/07/01 08:10:32;;;;;;;3.33;0.20;;;29.70;50.60;;;29.66;34.11;100087.19;5025614;28;20041;-54
2021/07/01 08:13:05;;;;;;;3.05;0.10;;;30.00;50.40;;;29.57;34.12;100078.13;5025424;28;20080;-52
2021/07/01 08:15:39;;;;;;;2.20;0.10;;;29.90;50.00;;;29.95;33.83;100085.34;5025591;28;20169;-55
2021/07/01 08:18:07;;;;;;;2.10;0.20;;;30.10;50.10;;;29.92;33.87;100088.59;5025585;28;20029;-55
2021/07/01 08:20:34;;;;;;;2.17;0.20;;;30.20;49.90;;;30.41;33.21;100086.81;5027211;28;20028;-54
2021/07/01 08:23:00;;;;;;;2.33;0.20;;;30.50;49.50;;;30.44;33.39;100089.75;5027078;28;20037;-51
2021/07/01 08:25:30;;;;;;;1.25;0.30;;;30.90;49.20;;;30.40;33.32;100082.53;5025839;28;20045;-52
2021/07/01 08:27:56;;;;;;;2.38;0.25;;;30.80;49.60;;;30.98;32.26;100086.72;5027114;28;20371;-54
2021/07/01 08:30:27;;;;;;;3.40;0.20;;;31.30;49.10;;;30.28;33.31;100096.34;5026984;28;20156;-49
2021/07/01 08:32:59;;;;;;;1.80;0.10;;;30.80;49.30;;;30.00;33.61;100095.28;5027237;28;20038;-56
2021/07/01 08:35:28;;;;;;;4.38;0.10;;;30.70;49.20;;;29.90;33.90;100092.63;5026829;28;20108;-56
2021/07/01 08:38:04;;;;;;;3.60;0.20;;;30.40;49.70;;;30.22;33.57;100100.19;5027138;28;20440;-57
2021/07/01 08:40:37;;;;;;;3.72;0.20;;;30.70;49.50;;;30.32;33.61;100094.69;5026076;28;20132;-55
2021/07/01 08:43:07;;;;;;;2.17;0.10;;;30.80;49.80;;;30.71;33.64;100093.78;5027153;28;20025;-56
2021/07/01 08:46:12;;;;;;;3.33;0.40;;;31.10;49.70;;;31.24;32.61;100089.88;5025922;28;20090;-55
2021/07/01 08:49:07;;;;;;;2.55;0.20;;;31.80;48.70;;;31.45;32.13;100085.00;5025712;28;20103;-52
2021/07/01 08:51:43;;;;;;;2.65;0.20;;;32.10;48.30;;;32.07;31.91;100087.56;5023564;28;20061;-52
2021/07/01 08:54:35;;;;;;;2.15;0.17;;;32.30;48.70;;;31.89;32.40;100084.59;5025457;28;20497;-57
2021/07/01 08:57:05;;;;;;;5.82;0.30;;;32.70;48.10;;;31.61;32.24;100085.59;5024868;28;20471;-52
2021/07/01 08:59:52;;;;;;;3.55;0.20;;;32.50;48.00;;;31.63;32.63;100078.03;5010664;28;20038;-54
2021/07/01 09:02:24;;;;;;;4.88;0.20;;;32.40;48.80;;;31.37;32.93;100077.59;5009549;28;20122;-56
2021/07/01 09:04:56;;;;;;;4.53;0.20;;;32.30;48.10;;;31.30;33.29;100085.22;4993540;28;20103;-57
2021/07/01 09:07:25;;;;;;;3.45;0.43;;;32.00;48.90;;;31.59;32.70;100077.00;5011049;28;20041;-55
2021/07/01 09:10:04;;;;;;;3.35;0.20;;;32.30;48.90;;;32.11;32.08;100078.59;5010579;28;20543;-55
2021/07/01 09:12:32;;;;;;;4.32;0.30;;;32.50;48.50;;;32.16;31.25;100085.75;5008966;28;20197;-56
2021/07/01 09:15:08;;;;;;;4.55;0.20;;;32.70;47.80;;;31.44;32.50;100079.91;5009008;28;20034;-58
2021/07/01 09:17:36;;;;;;;3.25;0.40;;;32.30;48.10;;;31.05;33.50;100072.91;4993260;28;20052;-55
2021/07/01 09:20:11;;;;;;;6.05;0.17;;;31.80;48.90;;;31.19;33.08;100068.44;5010626;28;20033;-55
2021/07/01 09:22:37;;;;;;;3.05;0.17;;;31.70;49.60;;;30.82;33.50;100066.47;5008818;28;20521;-56
2021/07/01 09:25:05;;;;;;;1.67;0.20;;;31.50;49.30;;;30.99;33.20;100066.00;5010406;28;20132;-53
2021/07/01 09:27:31;;;;;;;1.63;0.20;;;31.30;50.00;;;31.42;32.69;100055.97;5010470;28;20034;-56
2021/07/01 09:30:01;;;;;;;2.85;0.20;;;31.60;49.60;;;30.89;33.54;100050.78;5008988;28;20036;-50
2021/07/01 09:32:30;;;;;;;3.45;0.20;;;31.70;49.50;;;29.70;36.33;100056.03;5008598;28;20033;-53
2021/07/01 09:34:56;;;;;;;6.82;0.20;;;30.90;50.60;;;29.04;37.65;100048.38;5010487;28;20030;-54
2021/07/01 09:37:31;;;;;;;2.33;0.30;;;30.10;51.80;;;28.62;38.14;100046.94;5010307;28;20041;-56
2021/07/01 09:39:57;;;;;;;1.95;0.13;;;29.60;52.60;;;28.32;38.81;100042.47;5010268;28;20038;-54
2021/07/01 09:42:24;;;;;;;3.30;0.20;;;29.30;53.30;;;28.18;39.34;100040.59;5008645;28;20029;-51
2021/07/01 09:44:50;;;;;;;2.15;0.30;;;29.00;54.00;;;28.01;39.58;100040.88;5008789;28;20046;-55
2021/07/01 09:47:20;;;;;;;2.33;0.20;;;28.80;54.30;;;28.01;39.50;100040.88;5010213;28;20034;-53
2021/07/01 09:49:46;;;;;;;2.30;0.20;;;28.70;54.70;;;27.96;39.42;100044.38;5010241;28;20091;-55
2021/07/01 09:52:15;;;;;;;4.18;0.20;;;28.60;54.70;;;27.96;39.56;100039.00;5008479;28;20124;-54
2021/07/01 09:54:48;;;;;;;6.03;0.38;;;28.60;55.00;;;28.00;39.64;100031.25;5010000;28;20042;-56
2021/07/01 09:57:23;;;;;;;7.80;0.38;;;28.50;55.10;;;28.04;39.75;100024.28;5008487;28;20068;-54
2021/07/01 10:00:05;;;;;;;94.18;10.52;;;28.60;55.30;;;27.93;40.35;100031.50;5008438;28;20034;-55
2021/07/01 10:02:31;;;;;;;14.52;0.65;;;28.60;55.60;;;27.95;39.97;100031.25;5009927;28;20052;-57
2021/07/01 10:04:57;;;;;;;7.60;0.73;;;28.60;56.00;;;28.11;39.77;100038.19;5026434;28;20750;-56
2021/07/01 10:07:26;;;;;;;7.07;0.30;;;28.60;55.60;;;28.33;39.59;100035.25;5018812;28;20116;-56
2021/07/01 10:09:55;;;;;;;28.02;0.98;;;28.80;55.30;;;28.51;39.31;100034.63;5014356;28;20384;-55
2021/07/01 10:12:29;;;;;;;6.47;0.30;;;29.00;55.30;;;28.46;39.63;100034.66;5025632;28;20083;-56
2021/07/01 10:15:02;;;;;;;3.80;0.33;;;29.10;55.30;;;28.74;39.19;100034.03;5029773;28;20117;-55
2021/07/01 10:17:29;;;;;;;8.18;0.40;;;29.30;55.10;;;29.23;38.57;100033.25;5028484;28;20338;-58
2021/07/01 10:20:05;;;;;;;1.70;0.13;;;29.40;55.20;;;29.31;38.12;100038.00;5028509;28;20840;-56